createdAt,value
2022-08-05T00:01:35.527Z,42.77
2022-08-05T00:04:02.507Z,42.81
2022-08-05T00:06:35.930Z,42.93
2022-08-05T00:09:04.919Z,43.46
2022-08-05T00:11:49.105Z,43.31
2022-08-05T00:14:22.476Z,43.39
2022-08-05T00:16:54.666Z,42.93
2022-08-05T00:19:22.768Z,43.68
2022-08-05T00:21:51.911Z,43.26
2022-08-05T00:24:24.814Z,43.39
2022-08-05T00:26:59.077Z,42.98
2022-08-05T00:29:27.473Z,43.54
2022-08-05T00:32:12.180Z,44.17
2022-08-05T00:35:05.197Z,44.65
2022-08-05T00:37:50.632Z,44.13
2022-08-05T00:40:28.131Z,43.88
2022-08-05T00:43:02.696Z,44.94
2022-08-05T00:45:42.970Z,44.42
2022-08-05T00:48:12.827Z,45.21
2022-08-05T00:50:44.064Z,43.88
2022-08-05T00:54:00.110Z,45.32
2022-08-05T00:55:58.270Z,45.92
2022-08-05T00:58:27.402Z,45.92
2022-08-05T01:00:55.020Z,44.32
2022-08-05T01:03:22.762Z,45.10
2022-08-05T01:05:54.824Z,45.28
2022-08-05T01:08:30.730Z,45.27
2022-08-05T01:11:22.191Z,44.86
2022-08-05T01:14:04.210Z,44.10
2022-08-05T01:16:44.118Z,45.24
2022-08-05T01:19:46.390Z,44.61
2022-08-05T01:22:27.907Z,45.37
2022-08-05T01:25:22.777Z,45.65
2022-08-05T01:28:06.892Z,45.40
2022-08-05T01:30:39.882Z,44.85
2022-08-05T01:33:19.728Z,45.32
2022-08-05T01:35:51.177Z,45.83
2022-08-05T01:38:27.147Z,45.94
2022-08-05T01:40:57.497Z,45.38
2022-08-05T01:43:25.836Z,45.57
2022-08-05T01:45:56.458Z,44.40
2022-08-05T01:48:26.858Z,44.76
2022-08-05T01:50:56.477Z,44.76
2022-08-05T01:53:54.901Z,45.21
2022-08-05T01:58:11.157Z,44.04
2022-08-05T01:59:06.536Z,43.15
2022-08-05T02:01:37.987Z,43.05
2022-08-05T02:04:10.266Z,43.09
2022-08-05T02:06:39.120Z,42.50
2022-08-05T02:09:07.382Z,43.00
2022-08-05T02:11:48.177Z,43.59
2022-08-05T02:14:27.091Z,42.68
2022-08-05T02:16:56.210Z,42.90
2022-08-05T02:19:42.724Z,43.32
2022-08-05T02:22:27.285Z,43.72
2022-08-05T02:25:05.207Z,44.10
2022-08-05T02:27:58.059Z,43.68
2022-08-05T02:30:26.975Z,43.96
2022-08-05T02:32:57.083Z,43.90
2022-08-05T02:35:28.198Z,43.65
2022-08-05T02:38:02.161Z,44.17
2022-08-05T02:40:30.063Z,43.73
2022-08-05T02:42:59.129Z,44.40
2022-08-05T02:45:28.458Z,44.38
2022-08-05T02:48:06.427Z,44.26
2022-08-05T02:50:43.886Z,45.25
2022-08-05T02:53:19.168Z,44.77
2022-08-05T02:55:54.114Z,43.87
2022-08-05T02:58:26.766Z,43.94
2022-08-05T03:00:56.734Z,44.01
2022-08-05T03:03:24.200Z,44.33
2022-08-05T03:06:56.816Z,44.34
2022-08-05T03:08:42.583Z,44.95
2022-08-05T03:11:55.164Z,45.35
2022-08-05T03:14:13.835Z,45.40
2022-08-05T03:16:41.722Z,44.95
2022-08-05T03:19:17.123Z,45.58
2022-08-05T03:21:55.339Z,45.53
2022-08-05T03:24:29.419Z,45.34
2022-08-05T03:26:58.627Z,45.64
2022-08-05T03:29:45.302Z,45.31
2022-08-05T03:32:14.419Z,45.91
2022-08-05T03:34:50.542Z,45.06
2022-08-05T03:37:20.177Z,45.44
2022-08-05T03:39:59.182Z,45.29
2022-08-05T03:42:29.214Z,45.76
2022-08-05T03:44:58.843Z,46.39
2022-08-05T03:47:30.355Z,46.69
2022-08-05T03:50:01.939Z,46.38
2022-08-05T03:52:38.007Z,46.38
2022-08-05T03:56:05.718Z,45.90
2022-08-05T03:58:17.904Z,45.68
2022-08-05T04:00:46.457Z,46.41
2022-08-05T04:03:28.386Z,45.57
2022-08-05T04:05:58.095Z,45.90
2022-08-05T04:08:36.205Z,46.42
2022-08-05T04:11:06.035Z,46.04
2022-08-05T04:13:50.442Z,46.11
2022-08-05T04:16:24.959Z,46.73
2022-08-05T04:18:59.955Z,46.76
2022-08-05T04:22:09.084Z,45.83
2022-08-05T04:24:18.889Z,46.21
2022-08-05T04:26:49.224Z,45.98
2022-08-05T04:29:15.952Z,46.29
2022-08-05T04:31:43.021Z,45.99
2022-08-05T04:34:33.031Z,45.98
2022-08-05T04:36:56.796Z,45.30
2022-08-05T04:39:23.666Z,45.63
2022-08-05T04:41:51.394Z,45.85
2022-08-05T04:44:21.384Z,45.95
2022-08-05T04:46:56.089Z,45.92
2022-08-05T04:49:24.618Z,45.31
2022-08-05T04:52:05.469Z,45.07
2022-08-05T04:54:34.598Z,44.60
2022-08-05T04:57:01.558Z,44.58
2022-08-05T04:59:40.558Z,44.63
2022-08-05T05:02:37.630Z,44.31
2022-08-05T05:05:02.365Z,43.55
2022-08-05T05:07:32.110Z,42.69
2022-08-05T05:10:02.214Z,41.99
2022-08-05T05:12:29.985Z,42.11
2022-08-05T05:14:56.784Z,42.77
2022-08-05T05:17:55.909Z,44.07
2022-08-05T05:20:12.672Z,43.52
2022-08-05T05:22:40.675Z,43.47
2022-08-05T05:25:16.629Z,42.44
2022-08-05T05:27:48.554Z,43.76
2022-08-05T05:30:30.616Z,43.31
2022-08-05T05:33:00.770Z,42.22
2022-08-05T05:35:31.647Z,43.06
2022-08-05T05:38:08.896Z,43.21
2022-08-05T05:40:36.472Z,43.57
2022-08-05T05:43:03.421Z,43.18
2022-08-05T05:45:30.407Z,42.61
2022-08-05T05:48:05.512Z,44.70
2022-08-05T05:50:44.256Z,44.43
2022-08-05T05:53:22.089Z,44.81
2022-08-05T05:55:52.469Z,43.22
2022-08-05T05:58:31.428Z,44.53
2022-08-05T06:01:13.135Z,44.98
2022-08-05T06:04:01.078Z,46.10
2022-08-05T06:06:31.005Z,45.13
2022-08-05T06:08:58.671Z,43.08
2022-08-05T06:11:26.018Z,41.80
2022-08-05T06:13:54.054Z,41.60
2022-08-05T06:16:28.321Z,41.39
2022-08-05T06:18:59.961Z,41.65
2022-08-05T06:21:37.641Z,45.49
2022-08-05T06:24:12.193Z,43.64
2022-08-05T06:26:51.478Z,44.28
2022-08-05T06:29:25.389Z,46.08
2022-08-05T06:32:21.051Z,45.65
2022-08-05T06:34:53.567Z,43.12
2022-08-05T06:37:52.276Z,41.68
2022-08-05T06:40:11.337Z,45.51
2022-08-05T06:42:39.907Z,42.45
2022-08-05T06:45:09.350Z,44.48
2022-08-05T06:48:36.901Z,44.32
2022-08-05T06:50:24.964Z,43.94
2022-08-05T06:52:58.821Z,44.13
2022-08-05T06:55:38.026Z,42.63
2022-08-05T06:58:29.804Z,43.75
2022-08-05T07:00:59.538Z,41.46
2022-08-05T07:03:32.533Z,41.02
2022-08-05T07:06:05.799Z,40.91
2022-08-05T07:08:47.822Z,41.17
2022-08-05T07:11:22.282Z,42.54
2022-08-05T07:14:15.460Z,41.17
2022-08-05T07:18:00.620Z,42.29
2022-08-05T07:20:16.453Z,40.23
2022-08-05T07:22:28.890Z,39.61
2022-08-05T07:25:23.584Z,40.81
2022-08-05T07:27:59.466Z,39.60
2022-08-05T07:30:33.593Z,38.99
2022-08-05T07:33:09.270Z,39.07
2022-08-05T07:36:04.910Z,38.54
2022-08-05T07:38:33.491Z,39.24
2022-08-05T07:42:07.355Z,37.83
2022-08-05T07:43:50.408Z,37.08
2022-08-05T07:46:24.406Z,36.04
2022-08-05T07:49:02.294Z,37.69
2022-08-05T07:51:36.869Z,37.25
2022-08-05T07:54:05.938Z,36.14
2022-08-05T07:57:00.287Z,36.03
2022-08-05T07:59:30.988Z,36.17
2022-08-05T08:02:07.597Z,35.21
2022-08-05T08:04:44.755Z,34.12
2022-08-05T08:07:12.796Z,34.67
2022-08-05T08:09:39.548Z,34.25
2022-08-05T08:12:19.967Z,33.57
2022-08-05T08:14:53.526Z,33.94
2022-08-05T08:17:21.468Z,33.06
2022-08-05T08:20:10.719Z,33.44
2022-08-05T08:22:35.937Z,33.21
2022-08-05T08:25:16.513Z,34.30
2022-08-05T08:27:47.534Z,34.33
2022-08-05T08:30:29.551Z,33.37
2022-08-05T08:33:04.401Z,33.88
2022-08-05T08:35:41.584Z,33.25
2022-08-05T08:38:35.897Z,32.25
2022-08-05T08:41:09.933Z,32.09
2022-08-05T08:45:25.274Z,31.24
2022-08-05T08:46:29.312Z,31.87
2022-08-05T08:49:06.121Z,31.49
2022-08-05T08:52:03.268Z,33.50
2022-08-05T08:54:36.439Z,31.94
2022-08-05T08:57:11.226Z,34.35
2022-08-05T08:59:41.864Z,31.11
2022-08-05T09:02:16.623Z,30.41
2022-08-05T09:04:58.291Z,30.16
2022-08-05T09:07:40.135Z,29.65
2022-08-05T09:10:19.765Z,31.39
2022-08-05T09:12:51.030Z,30.29
2022-08-05T09:15:20.319Z,29.00
2022-08-05T09:17:49.699Z,28.60
2022-08-05T09:20:36.745Z,27.95
2022-08-05T09:23:05.098Z,28.27
2022-08-05T09:26:01.458Z,25.72
2022-08-05T09:28:32.365Z,25.96
2022-08-05T09:31:22.339Z,25.14
2022-08-05T09:33:59.727Z,27.87
2022-08-05T09:36:55.034Z,26.15
2022-08-05T09:39:39.425Z,26.58
2022-08-05T09:42:20.233Z,24.70
2022-08-05T09:44:56.330Z,24.36
2022-08-05T09:47:35.226Z,25.24
2022-08-05T09:50:18.037Z,24.32
2022-08-05T09:53:01.054Z,24.77
2022-08-05T09:55:58.716Z,25.03
2022-08-05T09:58:15.636Z,25.15
2022-08-05T10:00:53.363Z,24.69
2022-08-05T10:03:20.936Z,24.83
2022-08-05T10:06:02.672Z,24.27
2022-08-05T10:08:37.536Z,26.84
2022-08-05T10:11:13.167Z,25.63
2022-08-05T10:13:47.160Z,24.54
2022-08-05T10:16:41.803Z,25.62
2022-08-05T10:19:23.829Z,26.29
2022-08-05T10:22:09.129Z,24.21
2022-08-05T10:24:42.955Z,23.82
2022-08-05T10:27:14.958Z,24.19
2022-08-05T10:31:19.814Z,23.44
2022-08-05T10:32:53.684Z,24.57
2022-08-05T10:35:19.275Z,23.71
2022-08-05T10:37:47.437Z,24.29
2022-08-05T10:40:28.559Z,22.24
2022-08-05T10:43:01.463Z,22.43
2022-08-05T10:45:39.730Z,22.54
2022-08-05T10:48:38.371Z,22.54
2022-08-05T10:51:21.697Z,22.65
2022-08-05T10:54:23.050Z,23.24
2022-08-05T10:56:52.963Z,24.70
2022-08-05T11:00:02.103Z,24.34
2022-08-05T11:02:38.158Z,24.04
2022-08-05T11:05:05.455Z,24.00
2022-08-05T11:08:01.035Z,23.17
2022-08-05T11:10:27.159Z,23.44
2022-08-05T11:12:56.064Z,23.92
2022-08-05T11:16:00.803Z,23.87
2022-08-05T11:18:24.412Z,23.75
2022-08-05T11:20:52.970Z,22.32
2022-08-05T11:24:04.503Z,22.58
2022-08-05T11:26:32.890Z,22.15
2022-08-05T11:29:11.617Z,22.94
2022-08-05T11:31:58.457Z,21.30
2022-08-05T11:34:39.304Z,22.20
2022-08-05T11:38:28.627Z,22.62
2022-08-05T11:39:55.248Z,22.78
2022-08-05T11:42:28.158Z,22.21
2022-08-05T11:45:03.552Z,25.37
2022-08-05T11:47:49.655Z,23.37
2022-08-05T11:50:18.096Z,22.34
2022-08-05T11:52:48.831Z,22.83
2022-08-05T11:55:17.138Z,24.59
2022-08-05T11:58:10.649Z,22.95
2022-08-05T12:00:38.578Z,24.12
2022-08-05T12:03:29.515Z,23.27
2022-08-05T12:06:06.602Z,23.28
2022-08-05T12:08:57.929Z,22.64
2022-08-05T12:11:40.150Z,22.43
2022-08-05T12:14:10.327Z,21.77
2022-08-05T12:16:40.988Z,22.03
2022-08-05T12:20:16.837Z,21.25
2022-08-05T12:21:59.464Z,22.15
2022-08-05T12:24:28.142Z,20.77
2022-08-05T12:26:57.009Z,20.79
2022-08-05T12:29:25.962Z,20.57
2022-08-05T12:31:55.469Z,23.10
2022-08-05T12:34:31.744Z,21.59
2022-08-05T12:37:01.480Z,20.86
2022-08-05T12:39:34.498Z,20.76
2022-08-05T12:42:10.057Z,21.11
2022-08-05T12:44:43.007Z,21.47
2022-08-05T12:47:12.361Z,22.25
2022-08-05T12:50:04.037Z,21.44
2022-08-05T12:52:32.410Z,22.77
2022-08-05T12:55:32.820Z,23.13
2022-08-05T12:58:39.102Z,22.85
2022-08-05T13:02:03.963Z,22.39
2022-08-05T13:03:41.977Z,21.73
2022-08-05T13:06:17.717Z,22.65
2022-08-05T13:08:51.724Z,22.45
2022-08-05T13:12:01.043Z,23.63
2022-08-05T13:14:19.417Z,22.02
2022-08-05T13:16:53.774Z,22.08
2022-08-05T13:19:26.023Z,22.03
2022-08-05T13:21:56.683Z,22.80
2022-08-05T13:24:27.629Z,22.69
2022-08-05T13:27:22.929Z,21.43
2022-08-05T13:30:34.078Z,21.06
2022-08-05T13:32:50.566Z,20.59
2022-08-05T13:35:22.081Z,20.58
2022-08-05T13:37:55.586Z,20.80
2022-08-05T13:40:36.941Z,20.94
2022-08-05T13:43:12.227Z,20.83
2022-08-05T13:45:43.274Z,20.42
2022-08-05T13:48:57.367Z,20.01
2022-08-05T13:51:13.768Z,18.94
2022-08-05T13:53:47.843Z,18.69
2022-08-05T13:56:19.132Z,19.12
2022-08-05T13:58:52.999Z,19.37
2022-08-05T14:01:25.914Z,18.25
2022-08-05T14:04:21.863Z,19.86
2022-08-05T14:06:58.680Z,18.88
2022-08-05T14:09:42.926Z,19.10
2022-08-05T14:12:18.269Z,19.16
2022-08-05T14:14:59.914Z,18.52
2022-08-05T14:17:28.319Z,19.37
2022-08-05T14:20:00.939Z,19.14
2022-08-05T14:22:34.520Z,18.41
2022-08-05T14:25:02.540Z,18.43
2022-08-05T14:27:33.451Z,18.47
2022-08-05T14:30:01.104Z,19.03
2022-08-05T14:32:28.487Z,19.58
2022-08-05T14:34:57.009Z,19.25
2022-08-05T14:37:44.867Z,18.87
2022-08-05T14:40:14.207Z,18.95
2022-08-05T14:42:44.231Z,19.01
2022-08-05T14:45:11.627Z,18.79
2022-08-05T14:48:05.119Z,18.67
2022-08-05T14:50:25.297Z,18.95
2022-08-05T14:52:58.363Z,18.24
2022-08-05T14:55:28.702Z,18.22
2022-08-05T14:58:10.827Z,18.54
2022-08-05T15:00:57.914Z,18.62
2022-08-05T15:03:26.839Z,18.98
2022-08-05T15:06:08.159Z,18.02
2022-08-05T15:08:59.170Z,19.29
2022-08-05T15:11:52.767Z,19.28
2022-08-05T15:14:33.243Z,18.78
2022-08-05T15:17:01.118Z,18.63
2022-08-05T15:19:27.961Z,18.13
2022-08-05T15:22:01.338Z,18.22
2022-08-05T15:24:28.943Z,17.93
2022-08-05T15:26:57.145Z,18.55
2022-08-05T15:29:30.234Z,18.26
2022-08-05T15:32:03.069Z,18.06
2022-08-05T15:34:32.172Z,18.62
2022-08-05T15:37:03.554Z,18.49
2022-08-05T15:41:04.619Z,19.12
2022-08-05T15:42:53.549Z,19.83
2022-08-05T15:45:06.270Z,19.77
2022-08-05T15:47:35.859Z,20.04
2022-08-05T15:50:03.771Z,19.93
2022-08-05T15:52:53.108Z,20.85
2022-08-05T15:55:20.178Z,20.94
2022-08-05T15:57:52.468Z,20.87
2022-08-05T16:00:26.131Z,20.53
2022-08-05T16:03:06.476Z,21.58
2022-08-05T16:05:33.359Z,21.24
2022-08-05T16:08:00.215Z,21.61
2022-08-05T16:10:27.126Z,20.38
2022-08-05T16:12:56.211Z,20.67
2022-08-05T16:15:23.755Z,21.08
2022-08-05T16:17:57.702Z,21.25
2022-08-05T16:20:25.974Z,21.45
2022-08-05T16:22:55.116Z,21.55
2022-08-05T16:25:32.061Z,20.73
2022-08-05T16:28:09.442Z,21.03
2022-08-05T16:30:37.779Z,20.83
2022-08-05T16:33:04.759Z,20.96
2022-08-05T16:35:33.766Z,21.56
2022-08-05T16:38:18.848Z,21.43
2022-08-05T16:40:55.642Z,21.64
2022-08-05T16:43:30.446Z,21.63
2022-08-05T16:46:04.095Z,23.28
2022-08-05T16:48:38.494Z,21.93
2022-08-05T16:51:09.710Z,23.45
2022-08-05T16:54:04.215Z,22.08
2022-08-05T16:56:27.412Z,21.96
2022-08-05T16:58:54.296Z,21.49
2022-08-05T17:01:21.318Z,22.04
2022-08-05T17:03:51.863Z,22.43
2022-08-05T17:06:19.195Z,22.13
2022-08-05T17:08:52.788Z,24.93
2022-08-05T17:11:23.731Z,22.72
2022-08-05T17:14:00.655Z,23.42
2022-08-05T17:16:36.562Z,23.21
2022-08-05T17:19:07.862Z,24.06
2022-08-05T17:21:37.578Z,23.77
2022-08-05T17:24:19.487Z,26.64
2022-08-05T17:26:55.533Z,24.77
2022-08-05T17:29:33.869Z,26.44
2022-08-05T17:32:17.252Z,25.23
2022-08-05T17:34:48.151Z,24.22
2022-08-05T17:37:40.188Z,24.05
2022-08-05T17:40:11.013Z,24.16
2022-08-05T17:42:41.818Z,24.73
2022-08-05T17:45:20.087Z,24.33
2022-08-05T17:47:54.891Z,23.71
2022-08-05T17:50:30.406Z,25.52
2022-08-05T17:52:59.155Z,25.23
2022-08-05T17:55:34.595Z,25.16
2022-08-05T17:58:09.805Z,23.30
2022-08-05T18:00:39.924Z,25.80
2022-08-05T18:03:28.206Z,25.67
2022-08-05T18:06:04.582Z,25.66
2022-08-05T18:08:33.926Z,25.88
2022-08-05T18:11:01.256Z,25.05
2022-08-05T18:13:36.666Z,24.12
2022-08-05T18:16:13.466Z,25.49
2022-08-05T18:18:41.341Z,25.27
2022-08-05T18:21:20.067Z,25.98
2022-08-05T18:23:50.032Z,25.89
2022-08-05T18:26:27.807Z,24.91
2022-08-05T18:28:57.291Z,25.33
2022-08-05T18:31:24.355Z,24.76
2022-08-05T18:33:52.388Z,25.52
2022-08-05T18:36:19.521Z,25.16
2022-08-05T18:38:46.760Z,25.70
2022-08-05T18:41:53.710Z,26.56
2022-08-05T18:44:06.671Z,26.16
2022-08-05T18:46:34.997Z,26.78
2022-08-05T18:49:21.363Z,26.86
2022-08-05T18:52:08.933Z,27.82
2022-08-05T18:54:36.087Z,27.94
2022-08-05T18:57:09.675Z,28.14
2022-08-05T19:00:02.302Z,27.89
2022-08-05T19:02:29.732Z,29.12
2022-08-05T19:05:02.862Z,28.40
2022-08-05T19:07:47.997Z,27.95
2022-08-05T19:10:28.079Z,28.36
2022-08-05T19:12:56.593Z,28.53
2022-08-05T19:15:58.350Z,28.69
2022-08-05T19:18:21.052Z,28.23
2022-08-05T19:20:52.414Z,29.13
2022-08-05T19:23:22.569Z,30.40
2022-08-05T19:26:09.366Z,29.65
2022-08-05T19:28:42.249Z,30.00
2022-08-05T19:31:13.566Z,29.87
2022-08-05T19:33:48.694Z,29.82
2022-08-05T19:36:29.294Z,30.61
2022-08-05T19:38:59.094Z,30.89
2022-08-05T19:42:05.478Z,30.70
2022-08-05T19:44:16.889Z,30.68
2022-08-05T19:46:45.535Z,30.62
2022-08-05T19:49:17.127Z,31.14
2022-08-05T19:52:05.240Z,31.16
2022-08-05T19:54:34.126Z,31.75
2022-08-05T19:57:06.839Z,31.69
2022-08-05T20:00:00.448Z,31.61
2022-08-05T20:02:26.335Z,31.82
2022-08-05T20:04:55.441Z,31.62
2022-08-05T20:07:47.156Z,31.04
2022-08-05T20:10:14.127Z,31.07
2022-08-05T20:12:47.616Z,30.95
2022-08-05T20:15:48.987Z,31.10
2022-08-05T20:18:10.491Z,31.16
2022-08-05T20:20:56.600Z,31.75
2022-08-05T20:23:39.903Z,32.27
2022-08-05T20:26:16.625Z,31.91
2022-08-05T20:28:53.915Z,31.94
2022-08-05T20:31:37.034Z,32.38
2022-08-05T20:34:14.728Z,32.51
2022-08-05T20:36:43.452Z,32.27
2022-08-05T20:39:13.213Z,33.41
2022-08-05T20:41:43.295Z,31.78
2022-08-05T20:44:18.926Z,32.45
2022-08-05T20:46:57.507Z,33.18
2022-08-05T20:49:26.056Z,32.68
2022-08-05T20:51:54.520Z,33.61
2022-08-05T20:54:22.769Z,32.87
2022-08-05T20:56:52.820Z,33.19
2022-08-05T20:59:27.046Z,33.39
2022-08-05T21:02:07.600Z,33.14
2022-08-05T21:04:36.218Z,33.43
2022-08-05T21:07:04.941Z,33.96
2022-08-05T21:09:35.893Z,33.68
2022-08-05T21:12:08.890Z,34.04
2022-08-05T21:14:38.799Z,33.86
2022-08-05T21:17:06.251Z,34.03
2022-08-05T21:19:47.159Z,32.80
2022-08-05T21:22:18.723Z,33.06
2022-08-05T21:24:52.034Z,33.15
2022-08-05T21:27:25.239Z,34.98
2022-08-05T21:29:57.473Z,33.88
2022-08-05T21:32:27.201Z,33.79
2022-08-05T21:35:18.038Z,34.34
2022-08-05T21:37:47.150Z,34.34
2022-08-05T21:40:14.432Z,34.08
2022-08-05T21:42:45.285Z,34.50
2022-08-05T21:45:24.831Z,35.25
2022-08-05T21:48:02.371Z,35.12
2022-08-05T21:50:33.650Z,34.38
2022-08-05T21:53:04.523Z,35.32
2022-08-05T21:56:06.258Z,35.07
2022-08-05T21:58:32.058Z,34.96
2022-08-05T22:00:59.946Z,35.00
2022-08-05T22:03:49.099Z,34.14
2022-08-05T22:06:16.112Z,35.11
2022-08-05T22:08:50.573Z,36.06
2022-08-05T22:11:35.490Z,36.02
2022-08-05T22:14:31.328Z,36.85
2022-08-05T22:16:52.580Z,36.50
2022-08-05T22:20:00.579Z,36.74
2022-08-05T22:22:10.680Z,37.26
2022-08-05T22:24:56.141Z,37.37
2022-08-05T22:28:08.827Z,36.84
2022-08-05T22:30:32.212Z,36.71
2022-08-05T22:33:02.278Z,37.19
2022-08-05T22:35:38.541Z,36.97
2022-08-05T22:38:15.971Z,37.15
2022-08-05T22:40:49.438Z,36.78
2022-08-05T22:43:17.135Z,35.95
2022-08-05T22:46:11.907Z,35.42
2022-08-05T22:48:40.450Z,36.64
2022-08-05T22:51:08.090Z,37.12
2022-08-05T22:53:42.917Z,37.58
2022-08-05T22:56:17.384Z,37.27
2022-08-05T22:59:02.862Z,37.46
2022-08-05T23:01:50.617Z,37.63
2022-08-05T23:04:18.466Z,36.26
2022-08-05T23:06:45.996Z,35.49
2022-08-05T23:09:27.213Z,34.95
2022-08-05T23:12:01.577Z,35.90
2022-08-05T23:14:32.038Z,35.63
2022-08-05T23:17:24.055Z,37.35
2022-08-05T23:20:02.266Z,37.17
2022-08-05T23:22:29.703Z,36.67
2022-08-05T23:24:58.234Z,36.39
2022-08-05T23:27:31.374Z,36.61
2022-08-05T23:30:13.613Z,37.16
2022-08-05T23:32:40.823Z,37.39
2022-08-05T23:35:12.418Z,36.76
2022-08-05T23:37:39.296Z,35.92
2022-08-05T23:40:07.834Z,36.11
2022-08-05T23:42:37.357Z,36.14
2022-08-05T23:45:14.315Z,36.08
2022-08-05T23:47:47.517Z,36.36
2022-08-05T23:50:15.056Z,36.74
2022-08-05T23:52:49.952Z,36.23
2022-08-05T23:55:19.170Z,36.22
2022-08-05T23:57:51.159Z,36.47
